sensor_id;sensor_type;location;lat;lon;timestamp;temperature;humidity
25170;DHT22;13129;48.012;10.352;2023-12-20T04:32:04;3.60;99.90
25170;DHT22;13129;48.012;10.352;2023-12-20T04:34:30;3.50;99.90
25170;DHT22;13129;48.012;10.352;2023-12-20T04:36:55;3.60;99.90
25170;DHT22;13129;48.012;10.352;2023-12-20T04:39:21;3.50;99.90
25170;DHT22;13129;48.012;10.352;2023-12-20T04:41:47;3.50;99.90
25170;DHT22;13129;48.012;10.352;2023-12-20T04:44:16;3.50;99.90
25170;DHT22;13129;48.012;10.352;2023-12-20T04:46:41;3.50;99.90
25170;DHT22;13129;48.012;10.352;2023-12-20T04:49:07;3.50;99.90
25170;DHT22;13129;48.012;10.352;2023-12-20T04:51:33;3.50;99.90
25170;DHT22;13129;48.012;10.352;2023-12-20T04:54:00;3.50;99.90
25170;DHT22;13129;48.012;10.352;2023-12-20T04:56:25;3.50;99.90
25170;DHT22;13129;48.012;10.352;2023-12-20T04:58:51;3.50;99.90
25170;DHT22;13129;48.012;10.352;2023-12-20T05:01:17;3.50;99.90
25170;DHT22;13129;48.012;10.352;2023-12-20T05:03:42;3.50;99.90
25170;DHT22;13129;48.012;10.352;2023-12-20T05:06:09;3.50;99.90
25170;DHT22;13129;48.012;10.352;2023-12-20T05:08:35;3.50;99.90
25170;DHT22;13129;48.012;10.352;2023-12-20T05:11:01;3.50;99.90
25170;DHT22;13129;48.012;10.352;2023-12-20T05:13:27;3.40;99.90
25170;DHT22;13129;48.012;10.352;2023-12-20T05:15:54;3.40;99.90
25170;DHT22;13129;48.012;10.352;2023-12-20T05:18:20;3.40;99.90
25170;DHT22;13129;48.012;10.352;2023-12-20T05:20:46;3.50;99.90
25170;DHT22;13129;48.012;10.352;2023-12-20T05:23:12;3.40;99.90
25170;DHT22;13129;48.012;10.352;2023-12-20T05:25:38;3.40;99.90
25170;DHT22;13129;48.012;10.352;2023-12-20T05:28:04;3.40;99.90
25170;DHT22;13129;48.012;10.352;2023-12-20T05:30:30;3.40;99.90
25170;DHT22;13129;48.012;10.352;2023-12-20T05:32:56;3.40;99.90
25170;DHT22;13129;48.012;10.352;2023-12-20T05:35:21;3.40;99.90
25170;DHT22;13129;48.012;10.352;2023-12-20T05:37:49;3.40;99.90
25170;DHT22;13129;48.012;10.352;2023-12-20T05:40:14;3.40;99.90
25170;DHT22;13129;48.012;10.352;2023-12-20T05:42:40;3.40;99.90
25170;DHT22;13129;48.012;10.352;2023-12-20T05:45:06;3.40;99.90
25170;DHT22;13129;48.012;10.352;2023-12-20T05:47:32;3.30;99.90
25170;DHT22;13129;48.012;10.352;2023-12-20T05:49:57;3.30;99.90
25170;DHT22;13129;48.012;10.352;2023-12-20T05:52:24;3.40;99.90
25170;DHT22;13129;48.012;10.352;2023-12-20T05:54:49;3.30;99.90
25170;DHT22;13129;48.012;10.352;2023-12-20T05:57:15;3.30;99.90
25170;DHT22;13129;48.012;10.352;2023-12-20T05:59:40;3.30;99.90
25170;DHT22;13129;48.012;10.352;2023-12-20T06:02:06;3.30;99.90
25170;DHT22;13129;48.012;10.352;2023-12-20T06:04:32;3.30;99.90
25170;DHT22;13129;48.012;10.352;2023-12-20T06:06:58;3.30;99.90
25170;DHT22;13129;48.012;10.352;2023-12-20T06:09:26;3.20;99.90
25170;DHT22;13129;48.012;10.352;2023-12-20T06:11:52;3.30;99.90
25170;DHT22;13129;48.012;10.352;2023-12-20T06:14:18;3.20;99.90
25170;DHT22;13129;48.012;10.352;2023-12-20T06:16:43;3.20;99.90
25170;DHT22;13129;48.012;10.352;2023-12-20T06:19:10;3.20;99.90
25170;DHT22;13129;48.012;10.352;2023-12-20T06:21:36;3.20;99.90
25170;DHT22;13129;48.012;10.352;2023-12-20T06:24:01;3.10;99.90
25170;DHT22;13129;48.012;10.352;2023-12-20T06:26:27;3.10;99.90
25170;DHT22;13129;48.012;10.352;2023-12-20T06:28:53;3.10;99.90
25170;DHT22;13129;48.012;10.352;2023-12-20T06:31:18;3.10;99.90
25170;DHT22;13129;48.012;10.352;2023-12-20T06:33:44;3.10;99.90
25170;DHT22;13129;48.012;10.352;2023-12-20T06:36:13;3.10;99.90
25170;DHT22;13129;48.012;10.352;2023-12-20T06:38:39;3.10;99.90
25170;DHT22;13129;48.012;10.352;2023-12-20T06:41:04;3.00;99.90
25170;DHT22;13129;48.012;10.352;2023-12-20T06:43:31;3.10;99.90
25170;DHT22;13129;48.012;10.352;2023-12-20T06:45:58;3.00;99.90
25170;DHT22;13129;48.012;10.352;2023-12-20T06:48:23;3.00;99.90
25170;DHT22;13129;48.012;10.352;2023-12-20T06:50:49;3.00;99.90
25170;DHT22;13129;48.012;10.352;2023-12-20T06:53:15;3.00;99.90
25170;DHT22;13129;48.012;10.352;2023-12-20T06:55:40;3.00;99.90
25170;DHT22;13129;48.012;10.352;2023-12-20T06:58:06;3.00;99.90
25170;DHT22;13129;48.012;10.352;2023-12-20T07:00:32;3.00;99.90
25170;DHT22;13129;48.012;10.352;2023-12-20T07:02:59;3.10;99.90
25170;DHT22;13129;48.012;10.352;2023-12-20T07:05:25;3.10;99.90
25170;DHT22;13129;48.012;10.352;2023-12-20T07:07:52;3.10;99.90
25170;DHT22;13129;48.012;10.352;2023-12-20T07:10:17;3.10;99.90
25170;DHT22;13129;48.012;10.352;2023-12-20T07:12:43;3.10;99.90
25170;DHT22;13129;48.012;10.352;2023-12-20T07:15:10;3.10;99.90
25170;DHT22;13129;48.012;10.352;2023-12-20T07:17:35;3.10;99.90
25170;DHT22;13129;48.012;10.352;2023-12-20T07:20:01;3.20;99.90
25170;DHT22;13129;48.012;10.352;2023-12-20T07:22:30;3.20;99.90
25170;DHT22;13129;48.012;10.352;2023-12-20T07:24:57;3.20;99.90
25170;DHT22;13129;48.012;10.352;2023-12-20T07:27:23;3.20;99.90
25170;DHT22;13129;48.012;10.352;2023-12-20T07:29:49;3.20;99.90
25170;DHT22;13129;48.012;10.352;2023-12-20T07:32:14;3.30;99.90
25170;DHT22;13129;48.012;10.352;2023-12-20T07:34:40;3.30;99.90
25170;DHT22;13129;48.012;10.352;2023-12-20T07:37:06;3.30;99.90
25170;DHT22;13129;48.012;10.352;2023-12-20T07:39:31;3.30;99.90
25170;DHT22;13129;48.012;10.352;2023-12-20T07:41:57;3.30;99.90
25170;DHT22;13129;48.012;10.352;2023-12-20T07:44:22;3.40;99.90
25170;DHT22;13129;48.012;10.352;2023-12-20T07:46:48;3.40;99.90
25170;DHT22;13129;48.012;10.352;2023-12-20T07:49:14;3.40;99.90
25170;DHT22;13129;48.012;10.352;2023-12-20T07:51:39;3.40;99.90
25170;DHT22;13129;48.012;10.352;2023-12-20T07:54:05;3.40;99.90
25170;DHT22;13129;48.012;10.352;2023-12-20T07:56:33;3.50;99.90
25170;DHT22;13129;48.012;10.352;2023-12-20T07:58:59;3.50;99.90
25170;DHT22;13129;48.012;10.352;2023-12-20T08:01:24;3.50;99.90
25170;DHT22;13129;48.012;10.352;2023-12-20T08:03:50;3.50;99.90
25170;DHT22;13129;48.012;10.352;2023-12-20T08:06:16;3.50;99.90
25170;DHT22;13129;48.012;10.352;2023-12-20T08:08:43;3.60;99.90
25170;DHT22;13129;48.012;10.352;2023-12-20T08:11:08;3.60;99.90
25170;DHT22;13129;48.012;10.352;2023-12-20T08:13:34;3.60;99.90
25170;DHT22;13129;48.012;10.352;2023-12-20T08:16:00;3.60;99.90
25170;DHT22;13129;48.012;10.352;2023-12-20T08:18:28;3.60;99.90
25170;DHT22;13129;48.012;10.352;2023-12-20T08:20:54;3.70;99.90
25170;DHT22;13129;48.012;10.352;2023-12-20T08:23:19;3.70;99.90
25170;DHT22;13129;48.012;10.352;2023-12-20T08:25:46;3.80;99.90
25170;DHT22;13129;48.012;10.352;2023-12-20T08:28:13;3.80;99.90
25170;DHT22;13129;48.012;10.352;2023-12-20T08:30:39;3.80;99.90
25170;DHT22;13129;48.012;10.352;2023-12-20T08:33:05;3.90;99.90
25170;DHT22;13129;48.012;10.352;2023-12-20T08:35:33;3.90;99.90
25170;DHT22;13129;48.012;10.352;2023-12-20T08:37:58;3.90;99.90
25170;DHT22;13129;48.012;10.352;2023-12-20T08:40:24;4.00;99.90
25170;DHT22;13129;48.012;10.352;2023-12-20T08:42:50;3.90;99.90
25170;DHT22;13129;48.012;10.352;2023-12-20T08:45:15;3.90;99.90
25170;DHT22;13129;48.012;10.352;2023-12-20T08:47:41;4.00;99.90
25170;DHT22;13129;48.012;10.352;2023-12-20T08:50:08;3.90;99.90
25170;DHT22;13129;48.012;10.352;2023-12-20T08:52:33;4.00;99.90
25170;DHT22;13129;48.012;10.352;2023-12-20T08:54:59;4.00;99.90
25170;DHT22;13129;48.012;10.352;2023-12-20T08:57:24;4.00;99.90
25170;DHT22;13129;48.012;10.352;2023-12-20T08:59:50;4.00;99.90
25170;DHT22;13129;48.012;10.352;2023-12-20T09:02:16;4.10;99.90
25170;DHT22;13129;48.012;10.352;2023-12-20T09:04:42;4.10;99.90
25170;DHT22;13129;48.012;10.352;2023-12-20T09:07:24;4.10;99.90
25170;DHT22;13129;48.012;10.352;2023-12-20T09:09:50;4.10;99.90
25170;DHT22;13129;48.012;10.352;2023-12-20T09:12:18;4.10;99.90
25170;DHT22;13129;48.012;10.352;2023-12-20T09:14:44;4.10;99.90
25170;DHT22;13129;48.012;10.352;2023-12-20T09:17:09;4.20;99.90
25170;DHT22;13129;48.012;10.352;2023-12-20T09:19:37;4.20;99.90
25170;DHT22;13129;48.012;10.352;2023-12-20T09:22:03;4.20;99.90
25170;DHT22;13129;48.012;10.352;2023-12-20T09:24:29;4.20;99.90
25170;DHT22;13129;48.012;10.352;2023-12-20T09:26:55;4.30;99.90
25170;DHT22;13129;48.012;10.352;2023-12-20T09:29:21;4.30;99.90
25170;DHT22;13129;48.012;10.352;2023-12-20T09:31:46;4.40;99.90
25170;DHT22;13129;48.012;10.352;2023-12-20T09:34:15;4.40;99.90
25170;DHT22;13129;48.012;10.352;2023-12-20T09:36:40;4.40;99.90
25170;DHT22;13129;48.012;10.352;2023-12-20T09:39:13;4.50;99.90
25170;DHT22;13129;48.012;10.352;2023-12-20T09:41:42;4.40;99.90
25170;DHT22;13129;48.012;10.352;2023-12-20T09:44:08;4.40;99.90
25170;DHT22;13129;48.012;10.352;2023-12-20T09:46:38;4.50;99.90
25170;DHT22;13129;48.012;10.352;2023-12-20T09:49:06;4.60;99.90
25170;DHT22;13129;48.012;10.352;2023-12-20T09:51:32;4.60;99.90
25170;DHT22;13129;48.012;10.352;2023-12-20T09:53:59;4.70;99.90
25170;DHT22;13129;48.012;10.352;2023-12-20T09:56:26;4.80;99.90
25170;DHT22;13129;48.012;10.352;2023-12-20T09:58:52;4.80;99.90
25170;DHT22;13129;48.012;10.352;2023-12-20T10:01:19;4.90;99.90
25170;DHT22;13129;48.012;10.352;2023-12-20T10:03:45;5.00;99.90
25170;DHT22;13129;48.012;10.352;2023-12-20T10:06:11;5.00;99.90
25170;DHT22;13129;48.012;10.352;2023-12-20T10:08:36;5.00;99.90
25170;DHT22;13129;48.012;10.352;2023-12-20T10:11:02;5.10;99.90
25170;DHT22;13129;48.012;10.352;2023-12-20T10:13:29;5.20;99.90
25170;DHT22;13129;48.012;10.352;2023-12-20T10:15:55;5.30;99.90
25170;DHT22;13129;48.012;10.352;2023-12-20T10:18:21;5.50;99.90
25170;DHT22;13129;48.012;10.352;2023-12-20T10:20:47;5.50;99.90
25170;DHT22;13129;48.012;10.352;2023-12-20T10:23:13;5.50;99.90
25170;DHT22;13129;48.012;10.352;2023-12-20T10:25:40;5.60;99.90
25170;DHT22;13129;48.012;10.352;2023-12-20T10:28:14;5.60;99.90
25170;DHT22;13129;48.012;10.352;2023-12-20T10:30:40;5.40;99.90
25170;DHT22;13129;48.012;10.352;2023-12-20T10:33:07;5.40;99.90
25170;DHT22;13129;48.012;10.352;2023-12-20T10:35:36;5.40;99.90
25170;DHT22;13129;48.012;10.352;2023-12-20T10:38:06;5.40;99.90
25170;DHT22;13129;48.012;10.352;2023-12-20T10:40:34;5.30;99.90
25170;DHT22;13129;48.012;10.352;2023-12-20T10:43:02;5.30;99.90
25170;DHT22;13129;48.012;10.352;2023-12-20T10:45:28;5.30;99.90
25170;DHT22;13129;48.012;10.352;2023-12-20T10:47:53;5.40;99.90
25170;DHT22;13129;48.012;10.352;2023-12-20T10:50:19;5.40;99.90
25170;DHT22;13129;48.012;10.352;2023-12-20T10:52:47;5.40;99.90
25170;DHT22;13129;48.012;10.352;2023-12-20T10:55:13;5.40;99.90
25170;DHT22;13129;48.012;10.352;2023-12-20T10:57:38;5.30;99.90
25170;DHT22;13129;48.012;10.352;2023-12-20T11:00:06;5.40;99.90
25170;DHT22;13129;48.012;10.352;2023-12-20T11:02:39;5.40;99.90
25170;DHT22;13129;48.012;10.352;2023-12-20T11:05:38;5.60;99.90
25170;DHT22;13129;48.012;10.352;2023-12-20T11:08:09;5.60;99.90
25170;DHT22;13129;48.012;10.352;2023-12-20T11:13:10;5.80;99.90
25170;DHT22;13129;48.012;10.352;2023-12-20T11:15:37;6.10;99.90
25170;DHT22;13129;48.012;10.352;2023-12-20T11:18:04;6.70;99.90
25170;DHT22;13129;48.012;10.352;2023-12-20T11:20:41;7.40;99.90
25170;DHT22;13129;48.012;10.352;2023-12-20T11:23:08;7.90;99.90
25170;DHT22;13129;48.012;10.352;2023-12-20T11:25:46;7.90;99.90
25170;DHT22;13129;48.012;10.352;2023-12-20T11:28:13;7.70;99.90
25170;DHT22;13129;48.012;10.352;2023-12-20T11:30:56;7.50;99.90
25170;DHT22;13129;48.012;10.352;2023-12-20T11:33:31;7.30;99.90
25170;DHT22;13129;48.012;10.352;2023-12-20T11:35:57;7.20;99.90
25170;DHT22;13129;48.012;10.352;2023-12-20T11:38:25;7.00;99.90
25170;DHT22;13129;48.012;10.352;2023-12-20T11:40:53;6.80;99.90
25170;DHT22;13129;48.012;10.352;2023-12-20T11:43:38;6.60;99.90
25170;DHT22;13129;48.012;10.352;2023-12-20T11:46:05;6.30;99.90
25170;DHT22;13129;48.012;10.352;2023-12-20T11:48:32;6.10;99.90
25170;DHT22;13129;48.012;10.352;2023-12-20T11:50:58;6.00;99.90
25170;DHT22;13129;48.012;10.352;2023-12-20T11:53:24;5.90;99.90
25170;DHT22;13129;48.012;10.352;2023-12-20T11:55:50;5.90;99.90
25170;DHT22;13129;48.012;10.352;2023-12-20T11:58:16;5.90;99.90
25170;DHT22;13129;48.012;10.352;2023-12-20T12:00:45;6.00;99.90
25170;DHT22;13129;48.012;10.352;2023-12-20T12:03:14;5.90;99.90
25170;DHT22;13129;48.012;10.352;2023-12-20T12:05:40;5.90;99.90
25170;DHT22;13129;48.012;10.352;2023-12-20T12:08:06;6.00;99.90
25170;DHT22;13129;48.012;10.352;2023-12-20T12:10:33;6.00;99.90
25170;DHT22;13129;48.012;10.352;2023-12-20T12:12:59;6.10;99.90
25170;DHT22;13129;48.012;10.352;2023-12-20T12:15:25;6.00;99.90
25170;DHT22;13129;48.012;10.352;2023-12-20T12:17:54;6.00;99.90
25170;DHT22;13129;48.012;10.352;2023-12-20T12:20:21;6.00;99.90
25170;DHT22;13129;48.012;10.352;2023-12-20T12:23:00;6.00;99.90
25170;DHT22;13129;48.012;10.352;2023-12-20T12:25:26;5.90;99.90
25170;DHT22;13129;48.012;10.352;2023-12-20T12:27:53;5.90;99.90
25170;DHT22;13129;48.012;10.352;2023-12-20T12:30:19;5.80;99.90
25170;DHT22;13129;48.012;10.352;2023-12-20T12:32:45;5.70;99.90
25170;DHT22;13129;48.012;10.352;2023-12-20T12:35:11;5.70;99.90
25170;DHT22;13129;48.012;10.352;2023-12-20T12:37:40;5.80;99.90
25170;DHT22;13129;48.012;10.352;2023-12-20T12:40:11;5.80;99.90
25170;DHT22;13129;48.012;10.352;2023-12-20T12:42:37;5.70;99.90
25170;DHT22;13129;48.012;10.352;2023-12-20T12:45:03;5.70;99.90
25170;DHT22;13129;48.012;10.352;2023-12-20T12:47:33;5.60;99.90
25170;DHT22;13129;48.012;10.352;2023-12-20T12:52:36;5.50;99.90
25170;DHT22;13129;48.012;10.352;2023-12-20T12:55:21;5.50;99.90
25170;DHT22;13129;48.012;10.352;2023-12-20T12:57:46;5.40;99.90
25170;DHT22;13129;48.012;10.352;2023-12-20T13:00:12;5.30;99.90
25170;DHT22;13129;48.012;10.352;2023-12-20T13:02:39;5.20;99.90
25170;DHT22;13129;48.012;10.352;2023-12-20T13:05:10;5.20;99.90
25170;DHT22;13129;48.012;10.352;2023-12-20T13:07:36;5.00;99.90
25170;DHT22;13129;48.012;10.352;2023-12-20T13:10:03;5.00;99.90
25170;DHT22;13129;48.012;10.352;2023-12-20T13:12:29;4.90;99.90
25170;DHT22;13129;48.012;10.352;2023-12-20T13:15:04;4.90;99.90
25170;DHT22;13129;48.012;10.352;2023-12-20T13:17:33;4.90;99.90
25170;DHT22;13129;48.012;10.352;2023-12-20T13:19:58;5.00;99.90
25170;DHT22;13129;48.012;10.352;2023-12-20T13:26:40;5.00;99.90
25170;DHT22;13129;48.012;10.352;2023-12-20T13:29:28;5.00;99.90
25170;DHT22;13129;48.012;10.352;2023-12-20T13:31:54;5.10;99.90
25170;DHT22;13129;48.012;10.352;2023-12-20T13:34:20;5.10;99.90
25170;DHT22;13129;48.012;10.352;2023-12-20T13:36:46;5.00;99.90
25170;DHT22;13129;48.012;10.352;2023-12-20T13:39:15;5.00;99.90
25170;DHT22;13129;48.012;10.352;2023-12-20T13:41:42;5.10;99.90
25170;DHT22;13129;48.012;10.352;2023-12-20T13:44:07;5.10;99.90
25170;DHT22;13129;48.012;10.352;2023-12-20T13:46:33;5.10;99.90
25170;DHT22;13129;48.012;10.352;2023-12-20T13:48:59;5.20;99.90
25170;DHT22;13129;48.012;10.352;2023-12-20T13:51:25;5.00;99.90
25170;DHT22;13129;48.012;10.352;2023-12-20T13:53:50;5.00;99.90
25170;DHT22;13129;48.012;10.352;2023-12-20T13:56:16;5.00;99.90
25170;DHT22;13129;48.012;10.352;2023-12-20T13:58:42;5.00;99.90
25170;DHT22;13129;48.012;10.352;2023-12-20T14:01:09;5.00;99.90
25170;DHT22;13129;48.012;10.352;2023-12-20T14:03:35;5.10;99.90
25170;DHT22;13129;48.012;10.352;2023-12-20T14:06:01;5.10;99.90
25170;DHT22;13129;48.012;10.352;2023-12-20T14:08:27;4.90;99.90
25170;DHT22;13129;48.012;10.352;2023-12-20T14:10:53;4.80;99.90
25170;DHT22;13129;48.012;10.352;2023-12-20T14:13:18;4.80;99.90
25170;DHT22;13129;48.012;10.352;2023-12-20T14:15:44;4.80;99.90
25170;DHT22;13129;48.012;10.352;2023-12-20T14:18:10;4.80;99.90
25170;DHT22;13129;48.012;10.352;2023-12-20T14:20:37;4.80;99.90
25170;DHT22;13129;48.012;10.352;2023-12-20T14:23:05;4.80;99.90
25170;DHT22;13129;48.012;10.352;2023-12-20T14:25:30;4.70;99.90
25170;DHT22;13129;48.012;10.352;2023-12-20T14:27:59;4.70;99.90
25170;DHT22;13129;48.012;10.352;2023-12-20T14:30:25;4.70;99.90
25170;DHT22;13129;48.012;10.352;2023-12-20T14:32:51;4.60;99.90
25170;DHT22;13129;48.012;10.352;2023-12-20T14:35:16;4.60;99.90
25170;DHT22;13129;48.012;10.352;2023-12-20T14:37:42;4.50;99.90
25170;DHT22;13129;48.012;10.352;2023-12-20T14:40:08;4.40;99.90
25170;DHT22;13129;48.012;10.352;2023-12-20T14:42:46;4.30;99.90
25170;DHT22;13129;48.012;10.352;2023-12-20T14:45:12;4.20;99.90
25170;DHT22;13129;48.012;10.352;2023-12-20T14:47:42;4.00;99.90
25170;DHT22;13129;48.012;10.352;2023-12-20T14:50:07;3.90;99.90
25170;DHT22;13129;48.012;10.352;2023-12-20T14:52:33;3.90;99.90
25170;DHT22;13129;48.012;10.352;2023-12-20T14:55:00;3.90;99.90
25170;DHT22;13129;48.012;10.352;2023-12-20T14:57:28;3.90;99.90
25170;DHT22;13129;48.012;10.352;2023-12-20T14:59:55;3.90;99.90
25170;DHT22;13129;48.012;10.352;2023-12-20T15:02:20;3.90;99.90
25170;DHT22;13129;48.012;10.352;2023-12-20T15:04:46;4.00;99.90
25170;DHT22;13129;48.012;10.352;2023-12-20T15:07:11;4.00;99.90
25170;DHT22;13129;48.012;10.352;2023-12-20T15:09:38;3.90;99.90
25170;DHT22;13129;48.012;10.352;2023-12-20T15:12:04;3.90;99.90
25170;DHT22;13129;48.012;10.352;2023-12-20T15:14:30;3.90;99.90
25170;DHT22;13129;48.012;10.352;2023-12-20T15:16:55;3.90;99.90
25170;DHT22;13129;48.012;10.352;2023-12-20T15:19:21;3.80;99.90
25170;DHT22;13129;48.012;10.352;2023-12-20T15:21:47;3.80;99.90
25170;DHT22;13129;48.012;10.352;2023-12-20T15:24:13;3.80;99.90
25170;DHT22;13129;48.012;10.352;2023-12-20T15:26:43;3.80;99.90
25170;DHT22;13129;48.012;10.352;2023-12-20T15:29:10;3.90;99.90
25170;DHT22;13129;48.012;10.352;2023-12-20T15:31:42;3.80;99.90
25170;DHT22;13129;48.012;10.352;2023-12-20T15:34:08;3.80;99.90
25170;DHT22;13129;48.012;10.352;2023-12-20T15:36:33;3.70;99.90
25170;DHT22;13129;48.012;10.352;2023-12-20T15:38:59;3.60;99.90
25170;DHT22;13129;48.012;10.352;2023-12-20T15:41:24;3.60;99.90
25170;DHT22;13129;48.012;10.352;2023-12-20T15:43:50;3.70;99.90
25170;DHT22;13129;48.012;10.352;2023-12-20T15:46:16;3.50;99.90
25170;DHT22;13129;48.012;10.352;2023-12-20T15:48:41;3.50;99.90
25170;DHT22;13129;48.012;10.352;2023-12-20T15:51:10;3.40;99.90
25170;DHT22;13129;48.012;10.352;2023-12-20T15:53:36;3.30;99.90
25170;DHT22;13129;48.012;10.352;2023-12-20T15:56:03;3.30;99.90
25170;DHT22;13129;48.012;10.352;2023-12-20T15:58:32;3.00;99.90
25170;DHT22;13129;48.012;10.352;2023-12-20T16:00:58;2.90;99.90
25170;DHT22;13129;48.012;10.352;2023-12-20T16:03:24;2.90;99.90
25170;DHT22;13129;48.012;10.352;2023-12-20T16:05:49;2.60;99.90
25170;DHT22;13129;48.012;10.352;2023-12-20T16:08:15;2.50;99.90
25170;DHT22;13129;48.012;10.352;2023-12-20T16:10:41;2.50;99.90
25170;DHT22;13129;48.012;10.352;2023-12-20T16:13:07;2.60;99.90
25170;DHT22;13129;48.012;10.352;2023-12-20T16:15:33;2.50;99.90
25170;DHT22;13129;48.012;10.352;2023-12-20T16:17:58;2.40;99.90
25170;DHT22;13129;48.012;10.352;2023-12-20T16:20:24;2.40;99.90
25170;DHT22;13129;48.012;10.352;2023-12-20T16:22:50;2.40;99.90
25170;DHT22;13129;48.012;10.352;2023-12-20T16:25:16;2.40;99.90
25170;DHT22;13129;48.012;10.352;2023-12-20T16:27:41;2.40;99.90
25170;DHT22;13129;48.012;10.352;2023-12-20T16:30:08;2.40;99.90
25170;DHT22;13129;48.012;10.352;2023-12-20T16:32:34;2.30;99.90
25170;DHT22;13129;48.012;10.352;2023-12-20T16:35:00;2.50;99.90
25170;DHT22;13129;48.012;10.352;2023-12-20T16:37:26;2.40;99.90
25170;DHT22;13129;48.012;10.352;2023-12-20T16:39:52;2.50;99.90
25170;DHT22;13129;48.012;10.352;2023-12-20T16:42:18;2.50;99.90
25170;DHT22;13129;48.012;10.352;2023-12-20T16:44:43;2.50;99.90
25170;DHT22;13129;48.012;10.352;2023-12-20T16:47:09;2.80;99.90
25170;DHT22;13129;48.012;10.352;2023-12-20T16:49:35;2.70;99.90
25170;DHT22;13129;48.012;10.352;2023-12-20T16:52:01;2.70;99.90
25170;DHT22;13129;48.012;10.352;2023-12-20T16:54:26;2.60;99.90
25170;DHT22;13129;48.012;10.352;2023-12-20T16:56:52;2.70;99.90
25170;DHT22;13129;48.012;10.352;2023-12-20T16:59:18;2.60;99.90
25170;DHT22;13129;48.012;10.352;2023-12-20T17:01:44;2.60;99.90
25170;DHT22;13129;48.012;10.352;2023-12-20T17:04:11;2.70;99.90
25170;DHT22;13129;48.012;10.352;2023-12-20T17:06:37;2.60;99.90
25170;DHT22;13129;48.012;10.352;2023-12-20T17:09:03;2.70;99.90
25170;DHT22;13129;48.012;10.352;2023-12-20T17:11:28;2.50;99.90
25170;DHT22;13129;48.012;10.352;2023-12-20T17:13:54;2.50;99.90
25170;DHT22;13129;48.012;10.352;2023-12-20T17:16:20;2.50;99.90
25170;DHT22;13129;48.012;10.352;2023-12-20T17:18:45;2.60;99.90
25170;DHT22;13129;48.012;10.352;2023-12-20T17:21:15;2.40;99.90
25170;DHT22;13129;48.012;10.352;2023-12-20T17:23:41;2.50;99.90
25170;DHT22;13129;48.012;10.352;2023-12-20T17:26:07;2.50;99.90
25170;DHT22;13129;48.012;10.352;2023-12-20T17:28:32;2.40;99.90
25170;DHT22;13129;48.012;10.352;2023-12-20T17:30:58;2.50;99.90
25170;DHT22;13129;48.012;10.352;2023-12-20T17:33:25;2.20;99.90
25170;DHT22;13129;48.012;10.352;2023-12-20T17:35:51;2.30;99.90
25170;DHT22;13129;48.012;10.352;2023-12-20T17:38:16;2.10;99.90
25170;DHT22;13129;48.012;10.352;2023-12-20T17:40:42;2.00;99.90
25170;DHT22;13129;48.012;10.352;2023-12-20T17:43:08;2.00;99.90
25170;DHT22;13129;48.012;10.352;2023-12-20T17:45:38;1.90;99.90
25170;DHT22;13129;48.012;10.352;2023-12-20T17:48:04;1.90;99.90
25170;DHT22;13129;48.012;10.352;2023-12-20T17:50:30;1.90;99.90
25170;DHT22;13129;48.012;10.352;2023-12-20T17:52:56;1.90;99.90
25170;DHT22;13129;48.012;10.352;2023-12-20T17:55:24;1.80;99.90
25170;DHT22;13129;48.012;10.352;2023-12-20T17:57:50;1.90;99.90
25170;DHT22;13129;48.012;10.352;2023-12-20T18:00:19;1.90;99.90
25170;DHT22;13129;48.012;10.352;2023-12-20T18:02:45;1.90;99.90
25170;DHT22;13129;48.012;10.352;2023-12-20T18:05:11;2.00;99.90
25170;DHT22;13129;48.012;10.352;2023-12-20T18:07:38;1.90;99.90
25170;DHT22;13129;48.012;10.352;2023-12-20T18:10:04;1.90;99.90
25170;DHT22;13129;48.012;10.352;2023-12-20T18:12:30;1.90;99.90
25170;DHT22;13129;48.012;10.352;2023-12-20T18:14:56;1.90;99.90
25170;DHT22;13129;48.012;10.352;2023-12-20T18:17:28;1.90;99.90
25170;DHT22;13129;48.012;10.352;2023-12-20T18:19:54;2.00;99.90
25170;DHT22;13129;48.012;10.352;2023-12-20T18:22:19;2.00;99.90
25170;DHT22;13129;48.012;10.352;2023-12-20T18:24:45;2.00;99.90
25170;DHT22;13129;48.012;10.352;2023-12-20T18:27:10;2.10;99.90
25170;DHT22;13129;48.012;10.352;2023-12-20T18:29:36;2.10;99.90
25170;DHT22;13129;48.012;10.352;2023-12-20T18:32:02;2.20;99.90
25170;DHT22;13129;48.012;10.352;2023-12-20T18:34:28;2.20;99.90
25170;DHT22;13129;48.012;10.352;2023-12-20T18:36:55;2.30;99.90
25170;DHT22;13129;48.012;10.352;2023-12-20T18:39:20;2.30;99.90
25170;DHT22;13129;48.012;10.352;2023-12-20T18:41:46;2.50;99.90
25170;DHT22;13129;48.012;10.352;2023-12-20T18:44:15;2.40;99.90
25170;DHT22;13129;48.012;10.352;2023-12-20T18:46:42;2.40;99.90
25170;DHT22;13129;48.012;10.352;2023-12-20T18:49:07;2.50;99.90
25170;DHT22;13129;48.012;10.352;2023-12-20T18:51:33;2.40;99.90
25170;DHT22;13129;48.012;10.352;2023-12-20T18:53:58;2.40;99.90
25170;DHT22;13129;48.012;10.352;2023-12-20T18:56:25;2.40;99.90
25170;DHT22;13129;48.012;10.352;2023-12-20T18:58:50;2.50;99.90
25170;DHT22;13129;48.012;10.352;2023-12-20T19:01:16;2.40;99.90
25170;DHT22;13129;48.012;10.352;2023-12-20T19:03:42;2.40;99.90
25170;DHT22;13129;48.012;10.352;2023-12-20T19:06:08;2.50;99.90
25170;DHT22;13129;48.012;10.352;2023-12-20T19:08:34;2.40;99.90
25170;DHT22;13129;48.012;10.352;2023-12-20T19:11:02;2.50;99.90
25170;DHT22;13129;48.012;10.352;2023-12-20T19:13:27;2.40;99.90
25170;DHT22;13129;48.012;10.352;2023-12-20T19:16:02;2.40;99.90
25170;DHT22;13129;48.012;10.352;2023-12-20T19:18:28;2.40;99.90
25170;DHT22;13129;48.012;10.352;2023-12-20T19:20:54;2.40;99.90
25170;DHT22;13129;48.012;10.352;2023-12-20T19:23:20;2.40;99.90
25170;DHT22;13129;48.012;10.352;2023-12-20T19:25:46;2.40;99.90
25170;DHT22;13129;48.012;10.352;2023-12-20T19:28:12;2.40;99.90
25170;DHT22;13129;48.012;10.352;2023-12-20T19:30:37;2.40;99.90
25170;DHT22;13129;48.012;10.352;2023-12-20T19:33:04;2.30;99.90
25170;DHT22;13129;48.012;10.352;2023-12-20T19:35:30;2.30;99.90
25170;DHT22;13129;48.012;10.352;2023-12-20T19:37:56;2.40;99.90
25170;DHT22;13129;48.012;10.352;2023-12-20T19:40:22;2.30;99.90
25170;DHT22;13129;48.012;10.352;2023-12-20T19:42:48;2.30;99.90
25170;DHT22;13129;48.012;10.352;2023-12-20T19:45:13;2.30;99.90
25170;DHT22;13129;48.012;10.352;2023-12-20T19:47:51;2.20;99.90
25170;DHT22;13129;48.012;10.352;2023-12-20T19:50:18;2.20;99.90
25170;DHT22;13129;48.012;10.352;2023-12-20T19:52:45;2.30;99.90
25170;DHT22;13129;48.012;10.352;2023-12-20T19:55:10;2.30;99.90
25170;DHT22;13129;48.012;10.352;2023-12-20T19:57:36;2.20;99.90
25170;DHT22;13129;48.012;10.352;2023-12-20T20:00:02;2.20;99.90
25170;DHT22;13129;48.012;10.352;2023-12-20T20:02:30;2.20;99.90
25170;DHT22;13129;48.012;10.352;2023-12-20T20:04:55;2.20;99.90
25170;DHT22;13129;48.012;10.352;2023-12-20T20:07:21;2.30;99.90